Time;durP1;ratioP1;P1;durP2;ratioP2;P2;SDS_P1;SDS_P2;PMS_P1;PMS_P2;Temp;Humidity;BMP_temperature;BMP_pressure;BME280_temperature;BME280_humidity;BME280_pressure;Samples;Min_cycle;Max_cycle;Signal;HPM_P1;HPM_P2
2024/02/15 00:00:34;;;;;;;1.10;0.70;;;20.90;73.80;;;;;;5000570;28;20222;-67
2024/02/15 00:03:07;;;;;;;1.00;0.80;;;20.90;73.80;;;;;;4990605;28;20391;-67
2024/02/15 00:05:38;;;;;;;1.10;0.77;;;20.90;73.80;;;;;;4986727;28;20196;-65
2024/02/15 00:08:17;;;;;;;1.42;0.60;;;20.90;73.90;;;;;;4986446;28;20238;-67
2024/02/15 00:10:46;;;;;;;0.90;0.60;;;20.90;73.80;;;;;;4992286;28;20925;-67
2024/02/15 00:13:14;;;;;;;0.80;0.60;;;20.90;73.90;;;;;;4989512;28;20787;-67
2024/02/15 00:15:41;;;;;;;0.93;0.70;;;20.80;73.80;;;;;;4989691;28;20236;-65
2024/02/15 00:18:17;;;;;;;1.00;0.70;;;20.80;73.80;;;;;;4989888;28;20196;-66
2024/02/15 00:20:48;;;;;;;1.52;0.73;;;20.80;73.80;;;;;;4989438;28;20238;-67
2024/02/15 00:23:17;;;;;;;0.90;0.63;;;20.80;74.60;;;;;;4992686;28;20654;-66
2024/02/15 00:25:45;;;;;;;0.90;0.70;;;20.80;73.80;;;;;;4987528;28;21389;-67
2024/02/15 00:28:18;;;;;;;0.98;0.75;;;20.80;73.90;;;;;;4991246;28;20223;-66
2024/02/15 00:30:44;;;;;;;0.90;0.60;;;20.80;73.90;;;;;;4986582;28;20299;-65
2024/02/15 00:33:17;;;;;;;1.00;0.80;;;20.80;73.70;;;;;;4992309;28;20196;-66
2024/02/15 00:35:50;;;;;;;0.90;0.65;;;20.70;73.80;;;;;;4989665;28;20224;-66
2024/02/15 00:38:22;;;;;;;0.90;0.65;;;20.70;73.70;;;;;;4992283;28;20670;-65
2024/02/15 00:40:53;;;;;;;1.00;0.70;;;20.70;73.80;;;;;;4988998;28;20224;-66
2024/02/15 00:43:22;;;;;;;1.00;0.75;;;20.70;73.90;;;;;;4992103;28;20204;-67
2024/02/15 00:45:50;;;;;;;0.90;0.70;;;20.70;73.90;;;;;;4993115;28;20657;-66
2024/02/15 00:48:21;;;;;;;0.95;0.70;;;20.70;73.90;;;;;;4994194;28;20204;-66
2024/02/15 00:50:48;;;;;;;0.98;0.75;;;20.70;73.80;;;;;;4984902;28;20758;-67
2024/02/15 00:53:25;;;;;;;0.80;0.60;;;20.60;74.20;;;;;;4990289;28;20679;-65
2024/02/15 00:55:53;;;;;;;1.00;0.80;;;20.60;73.90;;;;;;4986049;28;20199;-67
2024/02/15 00:58:21;;;;;;;0.90;0.60;;;20.60;73.90;;;;;;4988846;28;21430;-67
2024/02/15 01:00:49;;;;;;;0.90;0.60;;;20.60;73.90;;;;;;4991168;28;20220;-67
2024/02/15 01:03:19;;;;;;;0.90;0.70;;;20.60;73.90;;;;;;4993555;28;20613;-67
2024/02/15 01:05:48;;;;;;;1.10;0.80;;;20.60;73.90;;;;;;4985707;28;20203;-67
2024/02/15 01:08:17;;;;;;;1.10;0.80;;;20.60;74.00;;;;;;4993166;28;20596;-66
2024/02/15 01:10:47;;;;;;;1.42;0.70;;;20.60;73.90;;;;;;4992352;28;20211;-65
2024/02/15 01:13:14;;;;;;;1.23;0.75;;;20.60;74.00;;;;;;4991733;28;20205;-66
2024/02/15 01:15:41;;;;;;;0.95;0.70;;;20.50;73.90;;;;;;4983088;28;20274;-66
2024/02/15 01:18:07;;;;;;;0.90;0.60;;;20.50;73.80;;;;;;4980817;28;20226;-65
2024/02/15 01:20:44;;;;;;;0.90;0.70;;;20.50;74.70;;;;;;5000178;28;20230;-66
2024/02/15 01:23:15;;;;;;;1.00;0.80;;;20.50;73.90;;;;;;5002031;28;20202;-65
2024/02/15 01:25:42;;;;;;;0.90;0.60;;;20.50;74.00;;;;;;4991113;28;20874;-66
2024/02/15 01:28:20;;;;;;;0.90;0.70;;;20.50;74.10;;;;;;4992713;28;20230;-66
2024/02/15 01:30:49;;;;;;;1.00;0.70;;;20.50;73.90;;;;;;4990705;28;20210;-67
2024/02/15 01:33:17;;;;;;;1.05;0.68;;;20.50;74.00;;;;;;4996574;28;20360;-67
2024/02/15 01:35:46;;;;;;;0.90;0.73;;;20.50;74.80;;;;;;4983696;28;20204;-67
2024/02/15 01:38:28;;;;;;;1.00;0.70;;;20.40;74.00;;;;;;4998359;28;20196;-68
2024/02/15 01:40:55;;;;;;;0.90;0.60;;;20.40;74.00;;;;;;4990076;28;20220;-65
2024/02/15 01:43:23;;;;;;;0.95;0.68;;;20.40;73.90;;;;;;4991969;28;20235;-67
2024/02/15 01:46:06;;;;;;;0.95;0.70;;;20.40;74.00;;;;;;4978232;28;20204;-66
2024/02/15 01:48:43;;;;;;;0.93;0.60;;;20.40;74.00;;;;;;4979857;28;20828;-65
2024/02/15 01:51:14;;;;;;;0.90;0.80;;;20.40;74.00;;;;;;4985922;28;20203;-66
2024/02/15 01:53:43;;;;;;;0.95;0.70;;;20.40;73.90;;;;;;4991713;28;20569;-66
2024/02/15 01:56:21;;;;;;;0.90;0.68;;;20.40;74.10;;;;;;4989330;28;21091;-65
2024/02/15 01:58:50;;;;;;;1.33;0.82;;;20.40;74.20;;;;;;4986432;28;20196;-65
2024/02/15 02:01:26;;;;;;;0.90;0.60;;;20.40;74.10;;;;;;4986908;28;20227;-66
2024/02/15 02:03:59;;;;;;;0.80;0.60;;;20.40;74.10;;;;;;4992639;28;20193;-66
2024/02/15 02:06:36;;;;;;;0.90;0.60;;;20.40;74.10;;;;;;4991417;28;20223;-66
2024/02/15 02:09:07;;;;;;;1.27;0.80;;;20.30;74.00;;;;;;4989834;28;20199;-67
2024/02/15 02:11:36;;;;;;;1.17;0.95;;;20.30;74.00;;;;;;4989136;28;21413;-65
2024/02/15 02:14:05;;;;;;;0.90;0.68;;;20.30;74.10;;;;;;4985835;28;20230;-68
2024/02/15 02:16:36;;;;;;;1.00;0.70;;;20.30;73.90;;;;;;4991124;28;20203;-67
2024/02/15 02:19:08;;;;;;;0.85;0.60;;;20.30;74.00;;;;;;4985122;28;20200;-65
2024/02/15 02:21:41;;;;;;;1.10;0.70;;;20.30;74.10;;;;;;4992318;28;20231;-67
2024/02/15 02:24:17;;;;;;;1.00;0.80;;;20.30;74.00;;;;;;4991041;28;20811;-67
2024/02/15 02:26:45;;;;;;;1.13;0.70;;;20.30;74.00;;;;;;4991194;28;20200;-67
2024/02/15 02:29:16;;;;;;;1.02;0.75;;;20.30;74.20;;;;;;4985650;28;20742;-66
2024/02/15 02:31:45;;;;;;;0.90;0.77;;;20.30;74.10;;;;;;4993515;28;20200;-67
2024/02/15 02:34:19;;;;;;;2.05;0.80;;;20.20;74.00;;;;;;4980791;28;22063;-66
2024/02/15 02:36:50;;;;;;;0.90;0.65;;;20.30;74.10;;;;;;4998086;28;20218;-67
2024/02/15 02:39:17;;;;;;;1.33;0.70;;;20.20;74.00;;;;;;4991539;28;20204;-66
2024/02/15 02:41:45;;;;;;;0.90;0.70;;;20.20;74.10;;;;;;4994353;28;21053;-68
2024/02/15 02:44:12;;;;;;;1.05;0.70;;;20.20;74.00;;;;;;4993231;28;20231;-67
2024/02/15 02:46:40;;;;;;;0.95;0.70;;;20.20;73.90;;;;;;4988223;28;20219;-66
2024/02/15 02:49:07;;;;;;;0.95;0.70;;;20.20;74.10;;;;;;4987792;28;20188;-66
2024/02/15 02:51:37;;;;;;;1.45;0.85;;;20.20;74.20;;;;;;4991274;28;20793;-65
2024/02/15 02:54:06;;;;;;;0.90;0.70;;;20.20;74.10;;;;;;4989169;28;20192;-65
2024/02/15 02:56:34;;;;;;;0.90;0.70;;;20.10;74.00;;;;;;4980394;28;20673;-68
2024/02/15 02:59:11;;;;;;;0.90;0.65;;;20.20;74.10;;;;;;4989844;28;20200;-68
2024/02/15 03:01:39;;;;;;;0.90;0.70;;;20.20;74.30;;;;;;4991474;28;20719;-66
2024/02/15 03:04:06;;;;;;;1.20;0.80;;;20.20;74.20;;;;;;4992602;28;20676;-66
2024/02/15 03:06:32;;;;;;;1.00;0.70;;;20.20;74.00;;;;;;4995416;28;20199;-65
2024/02/15 03:09:01;;;;;;;0.90;0.70;;;20.10;74.00;;;;;;4992672;28;20601;-67
2024/02/15 03:11:31;;;;;;;0.90;0.63;;;20.10;73.90;;;;;;4995836;28;20208;-66
2024/02/15 03:14:00;;;;;;;1.02;0.77;;;20.10;74.00;;;;;;4988824;28;21562;-66
2024/02/15 03:16:33;;;;;;;0.90;0.70;;;20.10;74.00;;;;;;4991674;28;20199;-67
2024/02/15 03:19:02;;;;;;;1.13;0.77;;;20.10;74.20;;;;;;4993011;28;20199;-67
2024/02/15 03:21:31;;;;;;;0.90;0.60;;;20.10;74.20;;;;;;4995976;28;20220;-65
2024/02/15 03:24:01;;;;;;;1.02;0.70;;;20.10;74.30;;;;;;4991324;28;20266;-66
2024/02/15 03:26:38;;;;;;;0.90;0.70;;;20.10;74.00;;;;;;4991091;28;20208;-67
2024/02/15 03:29:09;;;;;;;0.90;0.60;;;20.10;73.90;;;;;;4990556;28;20211;-65
2024/02/15 03:31:37;;;;;;;1.00;0.70;;;20.10;74.20;;;;;;4992422;28;20560;-66
2024/02/15 03:34:15;;;;;;;1.73;1.02;;;20.10;74.30;;;;;;4990688;28;20554;-67
2024/02/15 03:36:53;;;;;;;;;;;;;;;;;;;;;
2024/02/15 03:39:23;;;;;;;0.90;0.70;;;20.10;74.00;;;;;;4981377;28;20201;-65
2024/02/15 03:41:55;;;;;;;1.25;0.80;;;20.10;74.20;;;;;;4996798;28;20232;-67
2024/02/15 03:44:25;;;;;;;0.90;0.60;;;20.10;74.20;;;;;;4992857;28;20204;-66
2024/02/15 03:46:55;;;;;;;0.90;0.60;;;20.10;74.20;;;;;;4986800;28;20200;-68
2024/02/15 03:49:22;;;;;;;1.13;0.70;;;20.00;74.00;;;;;;4988646;28;20200;-67
2024/02/15 03:51:49;;;;;;;1.40;1.15;;;20.00;74.20;;;;;;4992907;28;20353;-67
2024/02/15 03:54:16;;;;;;;0.90;0.60;;;20.00;74.30;;;;;;4993268;28;20207;-67
2024/02/15 03:56:52;;;;;;;0.90;0.60;;;20.00;74.20;;;;;;4989332;28;20676;-65
2024/02/15 03:59:26;;;;;;;1.35;0.80;;;20.00;74.20;;;;;;4991327;28;20202;-66
2024/02/15 04:01:56;;;;;;;1.00;0.68;;;20.00;74.20;;;;;;4986651;28;20220;-66
2024/02/15 04:04:34;;;;;;;0.90;0.70;;;20.00;74.20;;;;;;4988702;28;20200;-66
2024/02/15 04:07:11;;;;;;;0.90;0.60;;;20.00;74.00;;;;;;4979920;28;20242;-65
2024/02/15 04:09:38;;;;;;;0.93;0.80;;;20.00;74.20;;;;;;4985220;28;20199;-65
2024/02/15 04:12:11;;;;;;;1.10;0.70;;;20.00;74.20;;;;;;4992733;28;20628;-66
2024/02/15 04:17:22;;;;;;;1.10;0.98;;;20.00;74.90;;;;;;4985941;28;20687;-65
2024/02/15 04:19:50;;;;;;;1.27;0.60;;;20.00;74.20;;;;;;4985747;28;20207;-66
2024/02/15 04:22:18;;;;;;;1.00;0.73;;;20.00;74.20;;;;;;4991089;28;20211;-67
2024/02/15 04:24:45;;;;;;;0.82;0.60;;;20.00;74.10;;;;;;4989964;28;20218;-66
2024/02/15 04:27:13;;;;;;;0.98;0.68;;;20.00;74.00;;;;;;4994418;28;20653;-66
2024/02/15 04:29:44;;;;;;;0.90;0.60;;;20.00;74.20;;;;;;4992949;28;20245;-66
2024/02/15 04:32:15;;;;;;;1.23;0.73;;;19.90;74.00;;;;;;4985141;28;20211;-66
2024/02/15 04:34:45;;;;;;;0.90;0.70;;;19.90;73.90;;;;;;4990191;28;20200;-66
2024/02/15 04:37:13;;;;;;;0.90;0.80;;;19.90;74.00;;;;;;4994458;28;20212;-66
2024/02/15 04:39:42;;;;;;;0.98;0.80;;;19.90;73.80;;;;;;4996233;28;20744;-67
2024/02/15 04:42:11;;;;;;;1.00;0.70;;;20.00;74.30;;;;;;4992211;28;20228;-66
2024/02/15 04:44:45;;;;;;;1.10;0.70;;;19.90;74.30;;;;;;4987619;28;20206;-67
2024/02/15 04:47:14;;;;;;;0.90;0.60;;;19.90;74.30;;;;;;4994129;28;20895;-66
2024/02/15 04:49:42;;;;;;;0.90;0.63;;;19.90;74.00;;;;;;4991242;28;20201;-65
2024/02/15 04:52:09;;;;;;;1.00;0.70;;;19.90;73.90;;;;;;4988224;28;20201;-68
2024/02/15 04:54:43;;;;;;;0.90;0.60;;;19.90;74.00;;;;;;4996273;28;20202;-67
2024/02/15 04:57:11;;;;;;;0.93;0.70;;;19.90;74.00;;;;;;4982239;28;20200;-65
2024/02/15 04:59:38;;;;;;;1.08;0.70;;;19.90;74.00;;;;;;4988543;28;20281;-65
2024/02/15 05:02:09;;;;;;;0.95;0.68;;;19.90;74.00;;;;;;4985575;28;20232;-67
2024/02/15 05:04:42;;;;;;;1.00;0.70;;;19.90;74.00;;;;;;4995093;28;20862;-66
2024/02/15 05:07:28;;;;;;;1.90;0.60;;;19.90;74.10;;;;;;4989901;28;20550;-67
2024/02/15 05:10:03;;;;;;;1.00;0.75;;;19.90;74.20;;;;;;4988197;28;20200;-67
2024/02/15 05:12:31;;;;;;;1.00;0.70;;;19.90;74.00;;;;;;4993098;28;20672;-66
2024/02/15 05:15:01;;;;;;;1.00;0.80;;;19.90;74.10;;;;;;4990643;28;20205;-67
2024/02/15 05:17:29;;;;;;;1.10;0.70;;;19.90;74.20;;;;;;4980593;28;20204;-67
2024/02/15 05:19:58;;;;;;;0.90;0.70;;;19.90;74.20;;;;;;4988245;28;20261;-65
2024/02/15 05:22:33;;;;;;;1.00;0.70;;;19.80;74.10;;;;;;4992974;28;20219;-66
2024/02/15 05:25:05;;;;;;;1.00;0.80;;;19.90;74.20;;;;;;4995962;28;20214;-65
2024/02/15 05:27:35;;;;;;;0.98;0.73;;;19.80;73.90;;;;;;4991639;28;20204;-66
2024/02/15 05:30:18;;;;;;;0.93;0.80;;;19.80;74.00;;;;;;4991170;28;20205;-66
2024/02/15 05:32:47;;;;;;;1.10;0.80;;;19.80;74.00;;;;;;4991394;28;20748;-67
2024/02/15 05:35:20;;;;;;;0.98;0.70;;;19.80;73.90;;;;;;4992266;28;20208;-66
2024/02/15 05:38:03;;;;;;;1.33;0.80;;;19.80;74.20;;;;;;4990289;28;20245;-66
2024/02/15 05:40:31;;;;;;;1.10;0.80;;;19.80;74.00;;;;;;4992621;28;20283;-65
2024/02/15 05:43:02;;;;;;;0.90;0.65;;;19.80;74.00;;;;;;4992338;28;20216;-67
2024/02/15 05:45:37;;;;;;;1.00;0.80;;;19.80;74.00;;;;;;4991880;28;20215;-68
2024/02/15 05:48:12;;;;;;;1.00;0.70;;;19.80;74.00;;;;;;4984496;28;20226;-66
2024/02/15 05:50:40;;;;;;;0.93;0.80;;;19.80;73.90;;;;;;4988923;28;20627;-65
2024/02/15 05:53:11;;;;;;;1.00;0.80;;;19.80;74.00;;;;;;4991969;28;20211;-67
2024/02/15 05:55:45;;;;;;;1.50;0.70;;;19.80;74.00;;;;;;4990350;28;20205;-67
2024/02/15 05:58:20;;;;;;;1.00;0.60;;;19.80;74.20;;;;;;4987892;28;22561;-67
2024/02/15 06:00:49;;;;;;;1.05;0.80;;;19.80;74.10;;;;;;4984623;28;20200;-67
2024/02/15 06:03:16;;;;;;;0.90;0.70;;;19.80;74.00;;;;;;4988852;28;20329;-65
2024/02/15 06:05:51;;;;;;;1.10;0.70;;;19.80;74.90;;;;;;4991825;28;20204;-66
2024/02/15 06:08:20;;;;;;;1.20;0.80;;;19.70;74.50;;;;;;4987941;28;20231;-66
2024/02/15 06:10:52;;;;;;;0.90;0.70;;;19.70;74.20;;;;;;4993634;28;20278;-67
2024/02/15 06:13:29;;;;;;;1.15;0.70;;;19.70;74.20;;;;;;4990844;28;20204;-65
2024/02/15 06:15:59;;;;;;;1.05;0.90;;;19.70;74.30;;;;;;4990709;28;20719;-66
2024/02/15 06:18:31;;;;;;;1.00;0.70;;;19.70;74.30;;;;;;4988401;28;20813;-67
2024/02/15 06:21:00;;;;;;;1.00;0.70;;;19.70;74.20;;;;;;4986511;28;20438;-67
2024/02/15 06:23:38;;;;;;;1.00;0.75;;;19.80;74.40;;;;;;4985762;28;20227;-67
2024/02/15 06:26:06;;;;;;;1.00;0.70;;;19.70;74.00;;;;;;4992690;28;20195;-66
2024/02/15 06:39:46;;;;;;;1.00;0.80;;;19.70;74.10;;;;;;4987492;28;20453;-65
2024/02/15 06:42:17;;;;;;;1.00;0.70;;;19.70;74.20;;;;;;4993552;28;20227;-68
2024/02/15 06:44:49;;;;;;;0.90;0.68;;;19.70;74.20;;;;;;4985798;28;20199;-66
2024/02/15 06:47:19;;;;;;;0.90;0.70;;;19.70;74.20;;;;;;4992266;28;20345;-65
2024/02/15 06:49:52;;;;;;;0.90;0.68;;;19.70;74.30;;;;;;4992762;28;20683;-67
2024/02/15 06:52:26;;;;;;;0.90;0.70;;;19.70;74.30;;;;;;4993095;28;20202;-67
2024/02/15 06:54:58;;;;;;;1.00;0.75;;;19.70;74.30;;;;;;4987410;28;20288;-65
2024/02/15 06:57:25;;;;;;;0.90;0.65;;;19.70;74.40;;;;;;4986228;28;20615;-66
2024/02/15 07:00:04;;;;;;;;;;;;;;;;;;;;;
2024/02/15 07:02:34;;;;;;;0.90;0.60;;;19.70;74.20;;;;;;4993207;28;20228;-67
2024/02/15 07:05:02;;;;;;;0.98;0.77;;;19.70;75.20;;;;;;4987659;28;20231;-70
2024/02/15 07:07:38;;;;;;;0.90;0.70;;;19.70;74.40;;;;;;4993746;28;20205;-68
2024/02/15 07:10:13;;;;;;;1.02;0.68;;;19.70;74.30;;;;;;4993874;28;20546;-66
2024/02/15 07:12:45;;;;;;;1.65;0.63;;;19.60;74.20;;;;;;4993457;28;20231;-69
2024/02/15 07:15:12;;;;;;;0.90;0.60;;;19.70;74.40;;;;;;4978223;28;20772;-67
2024/02/15 07:17:39;;;;;;;1.05;0.70;;;19.60;74.30;;;;;;4976588;28;20952;-67
2024/02/15 07:20:17;;;;;;;1.13;0.70;;;19.60;74.30;;;;;;4990005;28;20209;-67
2024/02/15 07:22:45;;;;;;;2.75;0.70;;;19.60;74.30;;;;;;4989152;28;20779;-69
2024/02/15 07:25:18;;;;;;;1.30;0.77;;;19.60;74.30;;;;;;4990036;28;20864;-69
2024/02/15 07:27:47;;;;;;;1.00;0.80;;;19.60;74.20;;;;;;4992367;28;20613;-71
2024/02/15 07:30:16;;;;;;;1.75;0.70;;;19.60;74.20;;;;;;4992554;28;20553;-69
2024/02/15 07:32:45;;;;;;;1.00;0.80;;;19.60;74.20;;;;;;4984127;28;20539;-70
2024/02/15 07:35:13;;;;;;;1.00;0.77;;;19.60;74.20;;;;;;4991582;28;20204;-69
2024/02/15 07:37:57;;;;;;;3.08;1.25;;;19.60;74.80;;;;;;4990076;28;20691;-69
2024/02/15 07:40:31;;;;;;;1.00;0.70;;;19.60;75.10;;;;;;4992112;28;20260;-66
2024/02/15 07:43:00;;;;;;;1.30;0.80;;;19.60;74.80;;;;;;4990060;28;20233;-69
2024/02/15 07:45:27;;;;;;;0.90;0.70;;;19.70;75.10;;;;;;4992115;28;20205;-69
2024/02/15 07:47:56;;;;;;;1.05;0.73;;;19.70;75.20;;;;;;4992519;28;20200;-69
2024/02/15 07:50:29;;;;;;;0.90;0.60;;;19.80;76.00;;;;;;4994941;28;20780;-69
2024/02/15 07:52:58;;;;;;;1.63;0.70;;;19.70;75.30;;;;;;4990150;28;20807;-67
2024/02/15 07:55:28;;;;;;;1.27;0.60;;;19.70;75.20;;;;;;4996261;28;20192;-67
2024/02/15 07:57:55;;;;;;;1.00;0.70;;;19.80;75.50;;;;;;4991908;28;20213;-70
2024/02/15 08:00:22;;;;;;;4.85;0.80;;;19.80;75.60;;;;;;4987280;28;20193;-66
2024/02/15 08:02:53;;;;;;;0.90;0.60;;;19.90;76.10;;;;;;4988711;28;20227;-65
2024/02/15 08:05:20;;;;;;;2.60;0.80;;;19.90;75.90;;;;;;4979964;28;20233;-65
2024/02/15 08:07:50;;;;;;;1.20;0.75;;;19.90;75.90;;;;;;4990944;28;20527;-66
2024/02/15 08:10:19;;;;;;;0.90;0.70;;;19.90;76.20;;;;;;4992951;28;20207;-67
2024/02/15 08:12:52;;;;;;;1.58;1.00;;;19.90;76.30;;;;;;4989595;28;20310;-67
2024/02/15 08:15:27;;;;;;;5.15;0.82;;;20.00;76.60;;;;;;4987550;28;21580;-69
2024/02/15 08:18:05;;;;;;;1.65;1.55;;;20.00;76.70;;;;;;4991704;28;20199;-69
2024/02/15 08:20:34;;;;;;;0.88;0.60;;;20.10;76.70;;;;;;4985759;28;20270;-70
2024/02/15 08:23:10;;;;;;;1.63;0.98;;;20.10;76.80;;;;;;4987797;28;20265;-71
2024/02/15 08:25:40;;;;;;;1.00;0.70;;;20.10;77.10;;;;;;4989749;28;20280;-66
2024/02/15 08:28:09;;;;;;;1.35;0.70;;;20.20;77.10;;;;;;4991633;28;20231;-67
2024/02/15 08:30:41;;;;;;;0.93;0.60;;;20.20;77.00;;;;;;4986431;28;20212;-67
2024/02/15 08:33:12;;;;;;;2.13;0.70;;;20.30;77.00;;;;;;4990601;28;20204;-66
2024/02/15 08:35:45;;;;;;;0.90;0.70;;;20.30;76.70;;;;;;4990188;28;22009;-66
2024/02/15 08:38:12;;;;;;;4.55;0.80;;;20.30;76.80;;;;;;4982145;28;20204;-67
2024/02/15 08:40:41;;;;;;;1.20;0.70;;;20.30;76.50;;;;;;4989088;28;20203;-66
2024/02/15 08:43:10;;;;;;;1.10;0.77;;;20.30;76.40;;;;;;4993128;28;20660;-67
2024/02/15 08:45:41;;;;;;;1.95;0.70;;;20.40;76.40;;;;;;4985324;28;20196;-67
2024/02/15 08:48:15;;;;;;;0.95;0.65;;;20.40;76.40;;;;;;4991971;28;20695;-67
2024/02/15 08:50:47;;;;;;;1.63;0.60;;;20.40;76.30;;;;;;4987983;28;20200;-66
2024/02/15 08:53:15;;;;;;;0.90;0.80;;;20.40;76.20;;;;;;4991293;28;20196;-67
2024/02/15 08:55:43;;;;;;;3.42;0.98;;;20.40;76.00;;;;;;4987091;28;20232;-67
2024/02/15 08:58:16;;;;;;;1.10;0.70;;;20.50;76.10;;;;;;4989278;28;20665;-66
2024/02/15 09:00:44;;;;;;;0.90;0.70;;;20.50;76.00;;;;;;4987451;28;20203;-67
2024/02/15 09:03:14;;;;;;;0.90;0.65;;;20.50;75.90;;;;;;4994334;28;20216;-66
2024/02/15 09:05:44;;;;;;;0.90;0.70;;;20.50;75.90;;;;;;4992954;28;20207;-66
2024/02/15 09:08:12;;;;;;;1.08;0.70;;;20.50;75.80;;;;;;4989631;28;20430;-67
2024/02/15 09:10:46;;;;;;;0.90;0.70;;;20.50;75.70;;;;;;4996929;28;20204;-66
2024/02/15 09:13:16;;;;;;;0.90;0.70;;;20.60;75.70;;;;;;4998473;28;20311;-67
2024/02/15 09:15:47;;;;;;;0.90;0.70;;;20.60;75.70;;;;;;4993034;28;20354;-67
2024/02/15 09:18:15;;;;;;;0.90;0.70;;;20.60;75.60;;;;;;4990340;28;20271;-66
2024/02/15 09:20:55;;;;;;;0.90;0.60;;;20.60;75.60;;;;;;4991913;28;20208;-67
2024/02/15 09:23:26;;;;;;;1.00;0.70;;;20.60;75.30;;;;;;4988502;28;21841;-67
2024/02/15 09:25:55;;;;;;;0.90;0.70;;;20.70;75.50;;;;;;4994705;28;20207;-67
2024/02/15 09:28:27;;;;;;;0.93;0.80;;;20.70;75.40;;;;;;4992023;28;20203;-67
2024/02/15 09:31:04;;;;;;;0.93;0.70;;;20.60;75.20;;;;;;4993715;28;20203;-67
2024/02/15 09:33:32;;;;;;;1.30;0.80;;;20.60;75.20;;;;;;4995274;28;20722;-67
2024/02/15 09:36:16;;;;;;;1.08;0.65;;;20.70;75.20;;;;;;4996644;28;20195;-67
2024/02/15 09:38:46;;;;;;;1.00;0.70;;;20.70;75.20;;;;;;4991482;28;20202;-67
2024/02/15 09:41:19;;;;;;;1.63;1.52;;;20.70;75.30;;;;;;4987070;28;20210;-66
2024/02/15 09:43:50;;;;;;;0.90;0.70;;;20.70;75.10;;;;;;4981353;28;20215;-67
2024/02/15 09:46:21;;;;;;;1.42;0.93;;;20.70;75.10;;;;;;4995472;28;20201;-67
2024/02/15 09:48:59;;;;;;;1.00;0.70;;;20.70;75.00;;;;;;4973216;28;20211;-66
2024/02/15 09:51:31;;;;;;;1.10;0.70;;;20.70;74.90;;;;;;4994170;28;20290;-66
2024/02/15 09:53:59;;;;;;;0.95;0.75;;;20.70;75.00;;;;;;4992596;28;20201;-66
2024/02/15 09:56:32;;;;;;;8.27;0.77;;;20.70;75.00;;;;;;4990393;28;20196;-67
2024/02/15 09:59:07;;;;;;;1.35;1.15;;;20.70;75.40;;;;;;4983665;28;20210;-67
2024/02/15 10:01:40;;;;;;;3.35;1.23;;;20.70;75.30;;;;;;4995217;28;20554;-66
2024/02/15 10:04:15;;;;;;;1.63;0.60;;;20.70;75.50;;;;;;4983339;28;20283;-66
2024/02/15 10:06:42;;;;;;;0.90;0.65;;;20.70;75.80;;;;;;4992191;28;20204;-66
2024/02/15 10:09:28;;;;;;;3.72;0.85;;;20.70;75.90;;;;;;4990947;28;21891;-67
2024/02/15 10:12:06;;;;;;;0.90;0.63;;;20.70;75.90;;;;;;4989191;28;20838;-66
2024/02/15 10:14:35;;;;;;;0.90;0.60;;;20.70;75.90;;;;;;4988177;28;20991;-65
2024/02/15 10:17:09;;;;;;;1.13;0.70;;;20.70;76.10;;;;;;4990824;28;20542;-64
2024/02/15 10:19:38;;;;;;;0.90;0.60;;;20.80;76.10;;;;;;4992111;28;20631;-65
2024/02/15 10:22:10;;;;;;;0.90;0.70;;;20.80;76.20;;;;;;4989821;28;20216;-64
2024/02/15 10:24:43;;;;;;;0.90;0.70;;;20.80;76.40;;;;;;4983170;28;20698;-65
2024/02/15 10:27:24;;;;;;;0.90;0.68;;;20.80;76.40;;;;;;4975552;28;20199;-63
2024/02/15 10:29:55;;;;;;;1.30;0.80;;;20.90;76.80;;;;;;4991016;28;20204;-64
2024/02/15 10:32:39;;;;;;;1.20;0.80;;;20.90;76.70;;;;;;4989216;28;20196;-64
2024/02/15 10:35:09;;;;;;;1.58;0.75;;;21.00;76.80;;;;;;4985814;28;20200;-64
2024/02/15 10:37:39;;;;;;;0.88;0.60;;;21.00;76.80;;;;;;4989890;28;20192;-63
2024/02/15 10:40:26;;;;;;;1.10;0.77;;;21.00;76.80;;;;;;4974670;28;20770;-64
2024/02/15 10:42:59;;;;;;;1.30;0.63;;;21.10;77.00;;;;;;4992511;28;20597;-61
2024/02/15 10:45:29;;;;;;;1.38;0.70;;;21.10;76.90;;;;;;4989981;28;20721;-65
2024/02/15 10:48:00;;;;;;;1.65;0.70;;;21.10;76.90;;;;;;4994444;28;20203;-63
2024/02/15 10:50:28;;;;;;;1.05;0.85;;;21.10;77.00;;;;;;4987477;28;20200;-64
2024/02/15 10:53:01;;;;;;;1.17;0.87;;;21.20;76.80;;;;;;4993426;28;20232;-65
2024/02/15 10:55:40;;;;;;;8.15;0.88;;;21.20;77.00;;;;;;4991154;28;21163;-64
2024/02/15 10:58:08;;;;;;;1.10;0.80;;;21.20;76.90;;;;;;4986006;28;20199;-64
2024/02/15 11:00:42;;;;;;;1.15;0.70;;;21.20;76.80;;;;;;4986719;28;20197;-63
2024/02/15 11:03:11;;;;;;;1.10;0.80;;;21.20;76.90;;;;;;4986481;28;20223;-63
2024/02/15 11:05:45;;;;;;;1.67;0.70;;;21.20;76.80;;;;;;4990312;28;20850;-64
2024/02/15 11:08:15;;;;;;;1.00;0.77;;;21.30;76.90;;;;;;4987317;28;20455;-63
2024/02/15 11:10:43;;;;;;;0.90;0.60;;;21.30;76.90;;;;;;4994295;28;20201;-64
2024/02/15 11:13:14;;;;;;;0.90;0.60;;;21.30;76.90;;;;;;4986946;28;20458;-68
2024/02/15 11:15:49;;;;;;;0.80;0.60;;;21.30;76.80;;;;;;4987724;28;20459;-70
2024/02/15 11:18:45;;;;;;;1.67;0.70;;;21.30;76.80;;;;;;4989957;28;20233;-66
2024/02/15 11:21:18;;;;;;;0.90;0.70;;;21.30;76.90;;;;;;4989204;28;20949;-67
2024/02/15 11:23:45;;;;;;;1.20;0.70;;;21.30;76.80;;;;;;4991763;28;20473;-65
2024/02/15 11:26:46;;;;;;;1.37;0.70;;;21.40;77.60;;;;;;4992978;28;20553;-67
2024/02/15 11:30:03;;;;;;;1.00;0.73;;;21.40;76.80;;;;;;4993565;28;20470;-66
2024/02/15 11:32:47;;;;;;;1.10;0.70;;;21.40;76.70;;;;;;4993699;28;20600;-68
2024/02/15 11:35:18;;;;;;;1.00;0.70;;;21.40;76.70;;;;;;4996867;28;20508;-69
2024/02/15 11:38:03;;;;;;;1.00;0.60;;;21.40;76.60;;;;;;4996478;28;20451;-66
2024/02/15 11:41:11;;;;;;;0.95;0.60;;;21.40;76.60;;;;;;4995525;28;20600;-66
2024/02/15 11:43:55;;;;;;;0.90;0.70;;;21.40;76.60;;;;;;4987450;28;21447;-63
2024/02/15 11:46:34;;;;;;;0.90;0.80;;;21.40;76.50;;;;;;4985872;28;21190;-64
2024/02/15 11:49:03;;;;;;;0.93;0.60;;;21.40;76.60;;;;;;4995790;28;20469;-65
2024/02/15 11:51:36;;;;;;;1.10;0.90;;;21.50;76.80;;;;;;4997451;28;20473;-65
2024/02/15 11:54:11;;;;;;;1.10;0.83;;;21.50;76.80;;;;;;4997092;28;20463;-65
2024/02/15 11:57:09;;;;;;;0.90;0.60;;;21.50;76.80;;;;;;4993054;28;20469;-67
2024/02/15 11:59:53;;;;;;;2.00;0.90;;;21.50;76.80;;;;;;4988784;28;20459;-69
2024/02/15 12:19:03;;;;;;;0.90;0.60;;;21.60;76.50;;;;;;4995998;28;20965;-67
2024/02/15 12:21:37;;;;;;;0.97;0.70;;;21.70;76.50;;;;;;4997418;28;20455;-71
2024/02/15 12:24:06;;;;;;;1.37;0.80;;;21.70;76.60;;;;;;4993933;28;20489;-65
2024/02/15 12:26:36;;;;;;;4.70;1.00;;;21.70;76.60;;;;;;4994863;28;20490;-65
2024/02/15 12:29:07;;;;;;;0.90;0.60;;;21.70;76.50;;;;;;4997211;28;21120;-67
2024/02/15 12:31:44;;;;;;;1.50;0.70;;;21.70;76.60;;;;;;4994612;28;20462;-66
2024/02/15 12:34:13;;;;;;;1.00;0.70;;;21.70;76.50;;;;;;4991542;28;21094;-63
2024/02/15 12:36:42;;;;;;;0.90;0.70;;;21.70;76.40;;;;;;4994500;28;22342;-70
2024/02/15 12:39:27;;;;;;;1.17;0.70;;;21.70;76.30;;;;;;4995647;28;20787;-64
2024/02/15 12:42:01;;;;;;;1.03;0.80;;;21.70;76.40;;;;;;4994158;28;20825;-65
2024/02/15 12:44:33;;;;;;;1.93;1.13;;;21.70;76.50;;;;;;4988789;28;20487;-66
2024/02/15 12:47:02;;;;;;;2.07;0.70;;;21.70;76.50;;;;;;4991163;28;20580;-68
2024/02/15 12:49:34;;;;;;;1.40;0.70;;;21.70;77.10;;;;;;4988622;28;20980;-74
2024/02/15 12:52:46;;;;;;;1.20;0.70;;;21.80;76.50;;;;;;4996538;28;20478;-67
2024/02/15 12:55:17;;;;;;;1.10;0.70;;;21.80;76.60;;;;;;4994408;28;21060;-65
2024/02/15 12:57:51;;;;;;;1.40;0.90;;;21.80;76.40;;;;;;4990110;28;20966;-65
2024/02/15 13:00:21;;;;;;;5.07;0.80;;;21.80;76.40;;;;;;4995079;28;20604;-64
2024/02/15 13:02:55;;;;;;;5.77;0.90;;;21.80;76.60;;;;;;4995297;28;21034;-68
2024/02/15 13:05:28;;;;;;;4.17;1.03;;;21.90;76.50;;;;;;4994483;28;20486;-73
2024/02/15 13:08:09;;;;;;;2.30;0.87;;;21.80;76.50;;;;;;4995886;28;20991;-68
2024/02/15 13:10:39;;;;;;;6.63;0.83;;;21.80;76.60;;;;;;4996135;28;20462;-66
2024/02/15 13:13:06;;;;;;;5.60;1.27;;;21.80;76.80;;;;;;4994255;28;20471;-69
2024/02/15 13:15:33;;;;;;;1.70;1.20;;;21.80;76.80;;;;;;4986465;28;20458;-71
2024/02/15 13:18:04;;;;;;;2.50;0.80;;;21.80;76.80;;;;;;4993315;28;20458;-69
2024/02/15 13:20:34;;;;;;;2.90;1.17;;;21.80;76.70;;;;;;4992327;28;20921;-70
2024/02/15 13:23:08;;;;;;;2.77;0.83;;;21.80;76.80;;;;;;4993601;28;20550;-73
2024/02/15 13:25:36;;;;;;;2.70;0.80;;;21.80;76.70;;;;;;4994407;28;20493;-73
2024/02/15 13:28:24;;;;;;;1.30;1.00;;;21.80;76.60;;;;;;4987425;28;20575;-72
2024/02/15 13:30:54;;;;;;;1.33;0.90;;;21.80;76.60;;;;;;4991277;28;20466;-70
2024/02/15 13:33:23;;;;;;;2.07;0.80;;;21.80;76.50;;;;;;4995780;28;20471;-71
2024/02/15 13:35:56;;;;;;;1.03;0.80;;;21.70;76.20;;;;;;4994701;28;20902;-70
2024/02/15 13:38:28;;;;;;;1.80;0.90;;;21.70;76.20;;;;;;4987259;28;20603;-71
2024/02/15 13:40:56;;;;;;;0.90;0.70;;;21.70;76.20;;;;;;4991972;28;20462;-71
2024/02/15 13:43:23;;;;;;;3.23;0.83;;;21.70;76.10;;;;;;4992281;28;20455;-69